Time,TemperatureF,DewpointF,PressureIn,WindDirection,WindDirectionDegrees,WindSpeedMPH,WindSpeedGustMPH,Humidity,HourlyPrecipIn,Conditions,Clouds,dailyrainin,SoftwareType,DateUTC
2013-02-15 00:06:00,39.9,33.3,29.82,SW,225,1.7,-999.0,77,-99.99,,,0.00,Acu-Link.com,2013-02-15 05:06:00,
2013-02-15 00:22:00,39.9,33.3,29.82,West,270,1.7,-999.0,77,-99.99,,,0.00,Acu-Link.com,2013-02-15 05:22:00,
2013-02-15 00:37:00,40.3,33.3,29.82,WSW,247,2.7,-999.0,76,-99.99,,,0.00,Acu-Link.com,2013-02-15 05:37:00,
2013-02-15 00:52:00,41.0,33.4,29.83,West,270,2.2,-999.0,74,-99.99,,,0.00,Acu-Link.com,2013-02-15 05:52:00,
2013-02-15 01:08:00,41.4,33.7,29.82,West,270,1.7,-999.0,74,-99.99,,,0.00,Acu-Link.com,2013-02-15 06:08:00,
2013-02-15 01:23:00,41.0,33.4,29.82,NNW,337,1.1,-999.0,74,-99.99,,,0.00,Acu-Link.com,2013-02-15 06:23:00,
2013-02-15 01:38:00,41.0,33.4,29.83,WNW,292,0.0,-999.0,74,-99.99,,,0.00,Acu-Link.com,2013-02-15 06:38:00,
2013-02-15 01:54:00,40.8,33.5,29.82,WNW,292,1.7,-999.0,75,-99.99,,,0.00,Acu-Link.com,2013-02-15 06:54:00,
2013-02-15 02:09:00,40.5,33.2,29.81,WNW,292,2.2,-999.0,75,-99.99,,,0.00,Acu-Link.com,2013-02-15 07:09:00,
2013-02-15 02:24:00,40.1,33.2,29.82,WNW,292,1.1,-999.0,76,-99.99,,,0.00,Acu-Link.com,2013-02-15 07:24:00,
2013-02-15 02:39:00,40.3,33.3,29.81,WNW,292,1.1,-999.0,76,-99.99,,,0.00,Acu-Link.com,2013-02-15 07:39:00,
2013-02-15 02:55:00,40.3,33.3,29.82,WNW,292,1.1,-999.0,76,-99.99,,,0.00,Acu-Link.com,2013-02-15 07:55:00,
2013-02-15 03:10:00,39.7,33.1,29.81,West,270,0.0,-999.0,77,-99.99,,,0.00,Acu-Link.com,2013-02-15 08:10:00,
2013-02-15 03:25:00,39.4,33.1,29.81,West,270,0.0,-999.0,78,-99.99,,,0.00,Acu-Link.com,2013-02-15 08:25:00,
2013-02-15 03:41:00,39.2,33.2,29.81,WNW,292,0.0,-999.0,79,-99.99,,,0.00,Acu-Link.com,2013-02-15 08:41:00,
2013-02-15 03:56:00,38.7,33.1,29.80,WNW,292,1.7,-999.0,80,-99.99,,,0.00,Acu-Link.com,2013-02-15 08:56:00,
2013-02-15 04:17:00,38.5,32.9,29.80,WNW,292,1.7,-999.0,80,-99.99,,,0.00,Acu-Link.com,2013-02-15 09:17:00,
2013-02-15 04:32:00,37.6,32.6,29.80,WNW,292,0.0,-999.0,82,-99.99,,,0.00,Acu-Link.com,2013-02-15 09:32:00,
2013-02-15 04:47:00,37.2,32.5,29.80,West,270,1.7,-999.0,83,-99.99,,,0.00,Acu-Link.com,2013-02-15 09:47:00,
2013-02-15 05:02:00,37.6,32.6,29.80,West,270,2.2,-999.0,82,-99.99,,,0.00,Acu-Link.com,2013-02-15 10:02:00,
2013-02-15 05:17:00,37.4,32.4,29.81,West,270,0.0,-999.0,82,-99.99,,,0.00,Acu-Link.com,2013-02-15 10:17:00,
2013-02-15 05:33:00,36.3,31.9,29.81,West,270,1.1,-999.0,84,-99.99,,,0.00,Acu-Link.com,2013-02-15 10:33:00,
2013-02-15 05:48:00,35.6,32.1,29.82,WNW,292,0.0,-999.0,87,-99.99,,,0.00,Acu-Link.com,2013-02-15 10:48:00,
2013-02-15 06:03:00,34.3,30.6,29.81,South,180,0.0,-999.0,86,-99.99,,,0.00,Acu-Link.com,2013-02-15 11:03:00,
2013-02-15 06:18:00,33.3,30.1,29.83,South,180,0.0,-999.0,88,-99.99,,,0.00,Acu-Link.com,2013-02-15 11:18:00,
2013-02-15 06:34:00,32.9,32.4,29.84,WNW,292,0.0,-999.0,98,-99.99,,,0.00,Acu-Link.com,2013-02-15 11:34:00,
2013-02-15 06:49:00,32.5,32.0,29.84,West,270,0.0,-999.0,98,-99.99,,,0.00,Acu-Link.com,2013-02-15 11:49:00,
2013-02-15 07:04:00,32.0,31.5,29.85,WNW,292,0.0,-999.0,98,-99.99,,,0.00,Acu-Link.com,2013-02-15 12:04:00,
2013-02-15 07:19:00,32.2,31.7,29.84,South,180,0.0,-999.0,98,-99.99,,,0.00,Acu-Link.com,2013-02-15 12:19:00,
2013-02-15 07:35:00,32.4,31.9,29.85,NNW,337,0.0,-999.0,98,-99.99,,,0.00,Acu-Link.com,2013-02-15 12:35:00,
2013-02-15 07:50:00,32.7,32.2,29.86,West,270,0.0,-999.0,98,-99.99,,,0.00,Acu-Link.com,2013-02-15 12:50:00,
2013-02-15 08:05:00,34.2,33.7,29.86,WSW,247,1.7,-999.0,98,-99.99,,,0.00,Acu-Link.com,2013-02-15 13:05:00,
2013-02-15 08:21:00,36.1,35.6,29.87,West,270,2.2,-999.0,98,-99.99,,,0.00,Acu-Link.com,2013-02-15 13:21:00,
2013-02-15 08:36:00,39.4,35.6,29.87,West,270,1.7,-999.0,86,-99.99,,,0.00,Acu-Link.com,2013-02-15 13:36:00,
2013-02-15 08:51:00,42.6,36.2,29.86,West,270,1.7,-999.0,78,-99.99,,,0.00,Acu-Link.com,2013-02-15 13:51:00,
2013-02-15 09:07:00,44.6,36.5,29.86,WSW,247,2.2,-999.0,73,-99.99,,,0.00,Acu-Link.com,2013-02-15 14:07:00,
2013-02-15 09:22:00,46.6,36.2,29.86,SSW,202,3.7,-999.0,67,-99.99,,,0.00,Acu-Link.com,2013-02-15 14:22:00,
2013-02-15 09:37:00,48.0,36.8,29.85,South,180,3.2,-999.0,65,-99.99,,,0.00,Acu-Link.com,2013-02-15 14:37:00,
2013-02-15 09:52:00,49.8,37.7,29.84,SE,135,3.2,-999.0,63,-99.99,,,0.00,Acu-Link.com,2013-02-15 14:52:00,
2013-02-15 10:07:00,52.7,38.3,29.85,West,270,2.7,-999.0,58,-99.99,,,0.00,Acu-Link.com,2013-02-15 15:07:00,
2013-02-15 10:23:00,53.4,38.6,29.84,SW,225,3.2,-999.0,57,-99.99,,,0.00,Acu-Link.com,2013-02-15 15:23:00,
2013-02-15 10:38:00,57.7,38.7,29.83,West,270,4.7,-999.0,49,-99.99,,,0.00,Acu-Link.com,2013-02-15 15:38:00,
2013-02-15 10:53:00,58.1,39.0,29.84,South,180,6.8,-999.0,49,-99.99,,,0.00,Acu-Link.com,2013-02-15 15:53:00,
2013-02-15 11:09:00,57.9,39.9,29.83,WNW,292,3.2,-999.0,51,-99.99,,,0.00,Acu-Link.com,2013-02-15 16:09:00,
2013-02-15 11:24:00,57.6,39.1,29.84,South,180,2.7,-999.0,50,-99.99,,,0.00,Acu-Link.com,2013-02-15 16:24:00,
2013-02-15 11:39:00,61.3,39.8,29.83,SSW,202,4.7,-999.0,45,-99.99,,,0.00,Acu-Link.com,2013-02-15 16:39:00,
2013-02-15 11:55:00,60.3,39.4,29.83,ESE,112,6.3,-999.0,46,-99.99,,,0.00,Acu-Link.com,2013-02-15 16:55:00,
2013-02-15 12:10:00,59.0,39.3,29.82,WSW,247,5.8,-999.0,48,-99.99,,,0.00,Acu-Link.com,2013-02-15 17:10:00,
2013-02-15 12:25:00,59.9,40.2,29.81,SW,225,2.2,-999.0,48,-99.99,,,0.00,Acu-Link.com,2013-02-15 17:25:00,
2013-02-15 12:40:00,61.5,40.0,29.81,West,270,3.2,-999.0,45,-99.99,,,0.00,Acu-Link.com,2013-02-15 17:40:00,
2013-02-15 12:56:00,59.5,39.3,29.80,WNW,292,7.8,-999.0,47,-99.99,,,0.00,Acu-Link.com,2013-02-15 17:56:00,
2013-02-15 13:11:00,58.6,39.5,29.80,SW,225,5.8,-999.0,49,-99.99,,,0.00,Acu-Link.com,2013-02-15 18:11:00,
2013-02-15 13:26:00,60.6,41.3,29.79,West,270,3.7,-999.0,49,-99.99,,,0.00,Acu-Link.com,2013-02-15 18:26:00,
2013-02-15 13:42:00,56.8,39.9,29.79,East,90,2.7,-999.0,53,-99.99,,,0.00,Acu-Link.com,2013-02-15 18:42:00,
2013-02-15 13:57:00,54.7,39.8,29.79,WSW,247,4.7,-999.0,57,-99.99,,,0.00,Acu-Link.com,2013-02-15 18:57:00,
2013-02-15 14:12:00,52.9,39.8,29.79,West,270,4.7,-999.0,61,-99.99,,,0.00,Acu-Link.com,2013-02-15 19:12:00,
2013-02-15 14:28:00,51.1,41.3,29.79,WNW,292,4.2,-999.0,69,-99.99,,,0.00,Acu-Link.com,2013-02-15 19:28:00,
2013-02-15 14:43:00,52.2,41.6,29.79,West,270,2.7,-999.0,67,-99.99,,,0.00,Acu-Link.com,2013-02-15 19:43:00,
2013-02-15 14:58:00,53.6,39.6,29.79,WNW,292,2.2,-999.0,59,-99.99,,,0.00,Acu-Link.com,2013-02-15 19:58:00,
2013-02-15 15:13:00,52.3,38.0,29.79,NNW,337,4.2,-999.0,58,-99.99,,,0.00,Acu-Link.com,2013-02-15 20:13:00,
2013-02-15 15:29:00,49.6,38.7,29.80,NNW,337,3.7,-999.0,66,-99.99,,,0.00,Acu-Link.com,2013-02-15 20:29:00,
2013-02-15 15:44:00,48.6,37.8,29.80,North,0,4.2,-999.0,66,-99.99,,,0.00,Acu-Link.com,2013-02-15 20:44:00,
2013-02-15 15:59:00,48.2,39.2,29.81,WSW,247,2.2,-999.0,71,-99.99,,,0.00,Acu-Link.com,2013-02-15 20:59:00,
2013-02-15 16:14:00,47.3,38.4,29.81,WNW,292,3.7,-999.0,71,-99.99,,,0.00,Acu-Link.com,2013-02-15 21:14:00,
2013-02-15 16:29:00,46.0,39.5,29.82,West,270,8.3,-999.0,78,-99.99,,,0.00,Acu-Link.com,2013-02-15 21:29:00,
2013-02-15 16:45:00,43.5,38.4,29.83,NNW,337,6.8,-999.0,82,-99.99,,,0.00,Acu-Link.com,2013-02-15 21:45:00,
2013-02-15 17:00:00,42.8,38.6,29.84,WNW,292,6.3,-999.0,85,-99.99,,,0.01,Acu-Link.com,2013-02-15 22:00:00,
2013-02-15 17:15:00,43.0,39.4,29.84,WNW,292,2.7,-999.0,87,-99.99,,,0.01,Acu-Link.com,2013-02-15 22:15:00,
2013-02-15 17:31:00,42.6,39.0,29.84,NNW,337,0.0,-999.0,87,-99.99,,,0.01,Acu-Link.com,2013-02-15 22:31:00,
2013-02-15 17:46:00,42.4,38.5,29.85,SW,225,1.7,-999.0,86,-99.99,,,0.01,Acu-Link.com,2013-02-15 22:46:00,
2013-02-15 18:01:00,42.1,36.7,29.85,NNE,22,3.7,-999.0,81,-99.99,,,0.01,Acu-Link.com,2013-02-15 23:01:00,
2013-02-15 18:17:00,42.1,37.3,29.86,SE,135,0.0,-999.0,83,-99.99,,,0.01,Acu-Link.com,2013-02-15 23:17:00,
2013-02-15 18:32:00,41.9,37.7,29.86,East,90,0.0,-999.0,85,-99.99,,,0.01,Acu-Link.com,2013-02-15 23:32:00,
2013-02-15 18:47:00,41.7,38.4,29.86,SE,135,0.0,-999.0,88,-99.99,,,0.01,Acu-Link.com,2013-02-15 23:47:00,
2013-02-15 19:02:00,41.5,39.9,29.86,NW,315,1.7,-999.0,94,-99.99,,,0.01,Acu-Link.com,2013-02-16 00:02:00,
2013-02-15 19:17:00,41.4,40.9,29.87,ENE,67,1.1,-999.0,98,-99.99,,,0.02,Acu-Link.com,2013-02-16 00:17:00,
2013-02-15 19:33:00,41.2,40.7,29.88,North,0,1.7,-999.0,98,-99.99,,,0.05,Acu-Link.com,2013-02-16 00:33:00,
2013-02-15 19:48:00,40.6,37.0,29.89,NNE,22,2.7,-999.0,87,-99.99,,,0.07,Acu-Link.com,2013-02-16 00:48:00,
2013-02-15 20:19:00,39.7,37.0,29.89,NE,45,0.0,-999.0,90,-99.99,,,0.07,Acu-Link.com,2013-02-16 01:19:00,
2013-02-15 20:34:00,39.6,36.6,29.88,NE,45,1.1,-999.0,89,-99.99,,,0.08,Acu-Link.com,2013-02-16 01:34:00,
2013-02-15 20:49:00,39.4,38.9,29.89,NE,45,1.7,-999.0,98,-99.99,,,0.08,Acu-Link.com,2013-02-16 01:49:00,
2013-02-15 21:05:00,39.2,38.7,29.88,NNE,22,0.0,-999.0,98,-99.99,,,0.08,Acu-Link.com,2013-02-16 02:05:00,
2013-02-15 21:20:00,39.2,38.7,29.89,SSE,157,1.1,-999.0,98,-99.99,,,0.08,Acu-Link.com,2013-02-16 02:20:00,
2013-02-15 21:35:00,38.7,36.0,29.89,NE,45,1.7,-999.0,90,-99.99,,,0.08,Acu-Link.com,2013-02-16 02:35:00,
2013-02-15 21:51:00,38.5,35.0,29.89,NNE,22,1.1,-999.0,87,-99.99,,,0.08,Acu-Link.com,2013-02-16 02:51:00,
2013-02-15 22:06:00,37.8,36.0,29.90,NW,315,1.7,-999.0,93,-99.99,,,0.08,Acu-Link.com,2013-02-16 03:06:00,
2013-02-15 22:21:00,37.2,36.4,29.89,NNE,22,0.0,-999.0,97,-99.99,,,0.08,Acu-Link.com,2013-02-16 03:21:00,
2013-02-15 22:37:00,36.3,35.8,29.89,NNE,22,0.0,-999.0,98,-99.99,,,0.08,Acu-Link.com,2013-02-16 03:37:00,
2013-02-15 22:52:00,36.1,35.6,29.89,NNE,22,0.0,-999.0,98,-99.99,,,0.08,Acu-Link.com,2013-02-16 03:52:00,
2013-02-15 23:07:00,35.2,34.7,29.88,NE,45,0.0,-999.0,98,-99.99,,,0.08,Acu-Link.com,2013-02-16 04:07:00,
2013-02-15 23:23:00,34.5,34.0,29.87,NE,45,0.0,-999.0,98,-99.99,,,0.08,Acu-Link.com,2013-02-16 04:23:00,
2013-02-15 23:38:00,33.3,32.8,29.87,NE,45,0.0,-999.0,98,-99.99,,,0.08,Acu-Link.com,2013-02-16 04:38:00,
2013-02-15 23:53:00,32.9,32.4,29.86,NE,45,0.0,-999.0,98,-99.99,,,0.08,Acu-Link.com,2013-02-16 04:53:00,